Time;durP1;ratioP1;P1;durP2;ratioP2;P2;SDS_P1;SDS_P2;PMS_P1;PMS_P2;Temp;Humidity;BMP_temperature;BMP_pressure;BME280_temperature;BME280_humidity;BME280_pressure;Samples;Min_cycle;Max_cycle;Signal;HPM_P1;HPM_P2
2022/12/24 00:01:08;;;;;;;7.43;2.00;;;;;;;11.31;100.00;99136.03;12205430;19;20007;-80
2022/12/24 00:05:10;;;;;;;7.97;2.00;;;;;;;11.20;100.00;99139.84;12181635;19;20096;-80
2022/12/24 00:09:11;;;;;;;5.53;1.70;;;;;;;11.11;100.00;99141.47;12206208;19;20094;-81
2022/12/24 00:13:15;;;;;;;10.90;2.20;;;;;;;11.07;100.00;99137.59;12204515;19;20002;-80
2022/12/24 00:17:16;;;;;;;10.60;2.03;;;;;;;11.01;100.00;99144.19;12182370;19;20006;-80
2022/12/24 00:21:18;;;;;;;10.85;2.42;;;;;;;10.97;100.00;99149.38;12205130;19;20011;-80
2022/12/24 00:25:20;;;;;;;4.47;1.92;;;;;;;10.92;100.00;99155.72;12206329;19;20360;-80
2022/12/24 00:29:21;;;;;;;10.27;2.10;;;;;;;10.89;100.00;99170.03;12178138;19;20002;-80
2022/12/24 00:33:23;;;;;;;7.55;1.77;;;;;;;10.90;100.00;99176.38;12198641;19;20425;-80
2022/12/24 00:37:25;;;;;;;13.05;3.53;;;;;;;10.90;100.00;99176.38;12197545;19;20030;-81
2022/12/24 00:41:27;;;;;;;13.90;2.35;;;;;;;10.92;100.00;99180.53;12177553;19;20002;-81
2022/12/24 00:45:29;;;;;;;6.68;2.20;;;;;;;10.94;100.00;99183.81;12203056;19;20018;-81
2022/12/24 00:49:31;;;;;;;9.73;2.10;;;;;;;10.97;100.00;99181.63;12197933;19;20039;-81
2022/12/24 00:53:33;;;;;;;7.07;1.98;;;;;;;11.11;100.00;99180.06;12180542;19;20010;-81
2022/12/24 00:57:34;;;;;;;10.95;2.85;;;;;;;11.12;100.00;99178.94;12200167;19;20492;-81
2022/12/24 01:01:36;;;;;;;6.15;2.63;;;;;;;11.12;100.00;99179.81;12204155;19;20013;-81
2022/12/24 01:05:38;;;;;;;13.68;2.80;;;;;;;11.16;100.00;99185.59;12178151;19;20002;-81
2022/12/24 01:09:39;;;;;;;11.85;2.20;;;;;;;11.25;100.00;99194.19;12202164;19;20003;-82
2022/12/24 01:13:44;;;;;;;9.13;2.05;;;;;;;11.31;100.00;99193.13;12172772;19;20010;-80
2022/12/24 01:17:45;;;;;;;10.18;1.92;;;;;;;11.28;100.00;99200.00;12199872;19;20023;-82
2022/12/24 01:21:47;;;;;;;11.10;2.45;;;;;;;11.31;100.00;99207.72;12199007;19;20006;-82
2022/12/24 01:25:48;;;;;;;12.93;2.60;;;;;;;11.32;100.00;99214.91;12179228;19;20035;-80
2022/12/24 01:29:50;;;;;;;10.98;2.40;;;;;;;11.33;100.00;99227.63;12200665;19;20010;-81
2022/12/24 01:33:52;;;;;;;8.77;2.65;;;;;;;11.30;100.00;99227.28;12199683;19;20006;-83
2022/12/24 01:37:53;;;;;;;7.22;2.28;;;;;;;11.25;100.00;99233.63;12222911;19;20066;-81
2022/12/24 01:46:30;;;;;;;9.57;2.97;;;;;;;11.29;100.00;99248.53;12198903;19;20010;-81
2022/12/24 01:50:32;;;;;;;7.15;1.75;;;;;;;11.30;100.00;99246.59;12176781;19;20731;-84
2022/12/24 01:54:48;;;;;;;11.65;1.98;;;;;;;11.24;100.00;99248.50;12201236;19;20014;-82
2022/12/24 01:58:56;;;;;;;14.30;3.10;;;;;;;11.09;100.00;99265.78;12178297;19;20035;-82
2022/12/24 02:02:58;;;;;;;7.55;2.10;;;;;;;10.96;100.00;99260.75;12199957;19;20030;-82
2022/12/24 02:07:01;;;;;;;12.18;2.38;;;;;;;10.84;100.00;99255.44;12198551;19;20380;-81
2022/12/24 02:11:08;;;;;;;12.77;3.13;;;;;;;10.66;100.00;99269.66;12177376;19;20035;-81
2022/12/24 02:15:12;;;;;;;12.20;1.98;;;;;;;10.57;100.00;99296.03;12191050;19;20796;-81
2022/12/24 02:19:51;;;;;;;11.88;2.10;;;;;;;10.46;100.00;99293.16;12195781;19;20015;-81
2022/12/24 02:24:31;;;;;;;11.05;2.60;;;;;;;10.48;100.00;99302.00;12176631;19;20006;-81
2022/12/24 02:29:06;;;;;;;8.63;2.28;;;;;;;10.55;100.00;99306.47;12207519;19;20014;-81
2022/12/24 02:33:24;;;;;;;11.88;2.33;;;;;;;10.60;100.00;99309.28;12188412;19;20006;-81
2022/12/24 02:37:38;;;;;;;15.48;2.60;;;;;;;10.64;100.00;99313.16;12206687;19;20479;-82
2022/12/24 02:42:05;;;;;;;16.20;3.10;;;;;;;10.73;100.00;99320.66;12195950;19;20042;-81
2022/12/24 02:46:12;;;;;;;11.02;3.22;;;;;;;10.77;100.00;99315.47;12211540;19;20011;-81
2022/12/24 02:50:15;;;;;;;15.88;3.38;;;;;;;10.79;100.00;99301.44;12248038;19;19997;-81
2022/12/24 02:54:17;;;;;;;;;;;;;;;10.82;100.00;99318.25;12268882;19;20020;-82
2022/12/24 02:58:51;;;;;;;12.55;2.40;;;;;;;10.85;100.00;99325.19;12225730;19;20257;-80
2022/12/24 03:03:24;;;;;;;14.00;2.00;;;;;;;10.83;100.00;99330.97;12187719;19;20855;-81
2022/12/24 03:08:04;;;;;;;13.00;1.92;;;;;;;10.88;100.00;99330.97;12208174;19;20015;-82
2022/12/24 03:12:14;;;;;;;10.30;2.85;;;;;;;10.94;100.00;99332.69;12181713;19;20006;-81
2022/12/24 03:16:22;;;;;;;8.90;2.28;;;;;;;10.91;100.00;99355.25;12200469;19;20003;-82
2022/12/24 03:20:29;;;;;;;10.25;2.00;;;;;;;10.91;100.00;99355.25;12184993;19;20027;-81
2022/12/24 03:24:30;;;;;;;8.20;2.00;;;;;;;10.87;100.00;99354.16;12208409;19;20018;-82
2022/12/24 03:28:32;;;;;;;11.50;2.42;;;;;;;10.86;100.00;99351.66;12202159;19;20941;-81
2022/12/24 03:32:34;;;;;;;11.43;2.25;;;;;;;10.85;100.00;99349.97;12184091;19;20007;-82
2022/12/24 03:36:36;;;;;;;13.30;2.55;;;;;;;10.88;100.00;99350.28;12201422;19;20002;-84
2022/12/24 03:40:37;;;;;;;12.17;2.73;;;;;;;10.92;100.00;99361.63;12207755;19;20013;-82
2022/12/24 03:44:39;;;;;;;8.98;1.98;;;;;;;10.93;100.00;99366.88;12178472;19;20011;-82
2022/12/24 03:48:40;;;;;;;13.52;2.10;;;;;;;10.97;100.00;99358.91;12202975;19;20003;-82
2022/12/24 03:52:42;;;;;;;13.05;2.08;;;;;;;10.97;100.00;99369.94;12179193;19;20011;-81
2022/12/24 03:56:44;;;;;;;6.30;1.67;;;;;;;10.94;100.00;99368.53;12200341;19;20014;-81
2022/12/24 04:00:46;;;;;;;11.55;2.10;;;;;;;10.90;100.00;99372.91;12204777;19;20007;-81
2022/12/24 04:04:47;;;;;;;11.13;1.98;;;;;;;10.88;100.00;99371.50;12178505;19;20019;-82
2022/12/24 04:08:49;;;;;;;6.65;1.60;;;;;;;10.93;100.00;99366.88;12201881;19;20040;-82
2022/12/24 04:12:50;;;;;;;10.73;1.85;;;;;;;10.96;100.00;99368.28;12200992;19;20014;-82
2022/12/24 04:16:52;;;;;;;10.52;1.85;;;;;;;10.93;100.00;99379.81;12181364;19;20477;-81
2022/12/24 04:20:54;;;;;;;13.20;2.25;;;;;;;10.97;100.00;99382.88;12203815;19;20029;-81
2022/12/24 04:24:55;;;;;;;6.95;2.10;;;;;;;11.00;100.00;99385.94;12199689;19;20037;-81
2022/12/24 04:28:57;;;;;;;10.27;2.03;;;;;;;11.05;100.00;99401.72;12178165;19;20455;-81
2022/12/24 04:32:59;;;;;;;10.35;2.25;;;;;;;11.02;100.00;99402.22;12198405;19;20516;-81
2022/12/24 04:37:01;;;;;;;11.88;2.03;;;;;;;11.04;100.00;99405.56;12197665;19;20054;-81
2022/12/24 04:41:10;;;;;;;11.05;1.50;;;;;;;11.03;100.00;99403.88;12177353;19;20010;-81
2022/12/24 04:45:20;;;;;;;10.85;2.25;;;;;;;10.97;100.00;99407.69;12199128;19;20014;-81
2022/12/24 04:49:21;;;;;;;15.68;3.05;;;;;;;10.91;100.00;99399.38;12200081;19;20007;-81
2022/12/24 04:53:23;;;;;;;13.07;2.55;;;;;;;10.88;100.00;99397.13;12176405;19;20003;-81
2022/12/24 04:57:24;;;;;;;10.07;2.25;;;;;;;10.83;100.00;99410.91;12201125;19;20030;-81
2022/12/24 05:01:29;;;;;;;12.10;2.17;;;;;;;10.80;100.00;99414.19;12199414;19;20011;-81
2022/12/24 05:05:31;;;;;;;11.70;2.35;;;;;;;10.71;100.00;99408.31;12178745;19;20003;-82
2022/12/24 05:09:32;;;;;;;11.80;2.40;;;;;;;10.76;100.00;99415.78;12199600;19;20078;-81
2022/12/24 05:13:34;;;;;;;12.10;3.28;;;;;;;10.82;100.00;99423.00;12199151;19;20007;-80
2022/12/24 05:17:46;;;;;;;12.48;1.95;;;;;;;10.85;100.00;99416.97;12178295;19;20722;-81
2022/12/24 05:26:20;;;;;;;13.95;2.42;;;;;;;10.90;100.00;99418.94;12201445;19;20007;-81
2022/12/24 05:26:20;;;;;;;8.15;2.47;;;;;;;10.92;100.00;99425.88;12176927;19;20480;-81
2022/12/24 05:30:22;;;;;;;13.82;3.85;;;;;;;10.95;100.00;99441.06;12196324;19;20030;-81
2022/12/24 05:34:24;;;;;;;10.88;3.03;;;;;;;10.97;100.00;99432.50;12198553;19;20433;-81
2022/12/24 05:38:25;;;;;;;9.65;2.55;;;;;;;10.97;100.00;99430.56;12172325;19;20007;-81
2022/12/24 05:42:27;;;;;;;14.20;2.40;;;;;;;10.98;100.00;99429.50;12194760;19;20070;-81
2022/12/24 05:46:29;;;;;;;7.25;2.60;;;;;;;10.96;100.00;99437.19;12194960;19;20006;-82
2022/12/24 05:50:30;;;;;;;10.30;2.67;;;;;;;10.95;100.00;99449.31;12177507;19;20010;-82
2022/12/24 05:54:38;;;;;;;22.15;2.45;;;;;;;10.98;100.00;99450.72;12197390;19;20492;-81
2022/12/24 05:58:41;;;;;;;15.05;3.35;;;;;;;10.95;100.00;99447.41;12198897;19;20006;-82
2022/12/24 06:02:43;;;;;;;14.00;2.20;;;;;;;10.93;100.00;99451.50;12175479;19;20492;-80
2022/12/24 06:06:45;;;;;;;15.90;2.30;;;;;;;10.91;100.00;99451.75;12199725;19;20030;-81
2022/12/24 06:10:46;;;;;;;17.10;3.15;;;;;;;10.94;100.00;99455.91;12180341;19;20059;-80
2022/12/24 06:14:48;;;;;;;11.70;2.33;;;;;;;10.95;100.00;99454.84;12195455;19;20019;-80
2022/12/24 06:18:50;;;;;;;13.43;2.78;;;;;;;11.01;100.00;99459.31;12198047;19;20392;-80
2022/12/24 06:22:51;;;;;;;11.60;3.13;;;;;;;11.06;100.00;99464.03;12183585;19;20007;-81
2022/12/24 06:26:53;;;;;;;17.20;3.45;;;;;;;11.04;100.00;99463.47;12208440;19;20049;-81
2022/12/24 06:30:55;;;;;;;14.55;3.28;;;;;;;10.99;100.00;99457.91;12241765;19;20006;-81
2022/12/24 06:35:03;;;;;;;12.95;3.47;;;;;;;10.98;100.00;99464.50;12206361;19;20017;-82
2022/12/24 06:39:05;;;;;;;9.77;2.42;;;;;;;10.95;100.00;99469.44;12203143;19;20365;-81
2022/12/24 06:43:06;;;;;;;14.40;3.25;;;;;;;10.99;100.00;99466.16;12198254;19;20039;-81
2022/12/24 06:47:08;;;;;;;14.60;3.00;;;;;;;10.98;100.00;99473.63;12159149;19;20035;-82
2022/12/24 06:51:11;;;;;;;19.10;3.45;;;;;;;10.93;100.00;99466.13;12199306;19;20353;-81
2022/12/24 06:55:12;;;;;;;17.95;3.15;;;;;;;10.93;100.00;99473.56;12200529;19;20046;-80
2022/12/24 06:59:14;;;;;;;10.13;2.55;;;;;;;10.88;100.00;99476.25;12179599;19;20006;-80
2022/12/24 07:03:16;;;;;;;16.63;2.78;;;;;;;10.91;100.00;99501.38;12201706;19;20391;-80
2022/12/24 07:07:17;;;;;;;21.80;4.30;;;;;;;10.98;100.00;99497.59;12201176;19;20003;-81
2022/12/24 07:11:20;;;;;;;15.20;3.15;;;;;;;10.98;100.00;99503.13;12185109;19;20086;-80
2022/12/24 07:15:22;;;;;;;14.70;3.25;;;;;;;11.04;100.00;99496.56;12216130;19;20758;-79
2022/12/24 07:19:24;;;;;;;14.80;3.97;;;;;;;11.05;100.00;99500.97;12217694;19;20007;-79
2022/12/24 07:23:25;;;;;;;13.80;3.63;;;;;;;11.06;100.00;99502.63;12197067;19;20344;-79
2022/12/24 07:27:27;;;;;;;19.77;3.42;;;;;;;10.99;100.00;99515.78;12217517;19;20039;-79
2022/12/24 07:31:29;;;;;;;16.05;3.65;;;;;;;10.98;100.00;99519.66;12214750;19;20007;-80
2022/12/24 07:35:30;;;;;;;16.70;3.40;;;;;;;11.01;100.00;99525.47;12194788;19;20463;-79
2022/12/24 07:39:32;;;;;;;11.77;3.50;;;;;;;11.03;100.00;99528.78;12216179;19;20022;-80
2022/12/24 07:43:34;;;;;;;20.45;4.15;;;;;;;10.98;100.00;99537.03;12219059;19;20003;-80
2022/12/24 07:47:35;;;;;;;19.25;3.20;;;;;;;11.01;100.00;99547.53;12194298;19;20006;-80
2022/12/24 07:51:37;;;;;;;20.23;3.28;;;;;;;10.97;100.00;99546.38;12215853;19;20007;-80
2022/12/24 07:55:39;;;;;;;16.35;2.13;;;;;;;11.02;100.00;99553.88;12216047;19;20351;-80
2022/12/24 07:59:42;;;;;;;16.98;2.95;;;;;;;11.03;100.00;99558.28;12202358;19;20010;-81
2022/12/24 08:03:44;;;;;;;12.43;3.33;;;;;;;11.08;100.00;99566.63;12230296;19;20042;-79
2022/12/24 08:07:46;;;;;;;16.52;4.03;;;;;;;11.10;100.00;99570.78;12223432;19;20003;-79
2022/12/24 08:11:47;;;;;;;19.17;4.00;;;;;;;11.14;100.00;99577.44;12221990;19;20002;-81
2022/12/24 08:15:53;;;;;;;15.85;3.03;;;;;;;11.16;100.00;99582.72;12216905;19;20017;-81
2022/12/24 08:19:54;;;;;;;19.38;4.60;;;;;;;11.17;100.00;99584.38;12202778;19;20357;-82
2022/12/24 08:23:56;;;;;;;17.15;3.60;;;;;;;11.17;100.00;99584.38;12222472;19;19999;-81
2022/12/24 08:27:58;;;;;;;22.15;3.50;;;;;;;11.18;100.00;99586.03;12223247;19;20036;-80
2022/12/24 08:31:59;;;;;;;17.00;3.15;;;;;;;11.21;100.00;99588.25;12203698;19;20667;-81
2022/12/24 08:36:01;;;;;;;17.40;3.78;;;;;;;11.22;100.00;99589.13;12221142;19;20851;-81
2022/12/24 08:40:03;;;;;;;21.23;4.57;;;;;;;11.24;100.00;99592.44;12227719;19;20509;-81
2022/12/24 08:44:05;;;;;;;19.85;5.47;;;;;;;11.24;100.00;99592.44;12204830;19;20007;-82
2022/12/24 08:48:08;;;;;;;22.50;3.97;;;;;;;11.31;100.00;99593.06;12228651;19;20048;-80
2022/12/24 08:52:10;;;;;;;14.20;3.60;;;;;;;11.42;100.00;99600.34;12230923;19;20407;-80
2022/12/24 08:56:13;;;;;;;16.70;4.00;;;;;;;11.50;100.00;99601.81;12244438;19;20003;-80
2022/12/24 09:00:15;;;;;;;12.98;3.15;;;;;;;11.56;100.00;99603.53;12271250;19;20014;-82
2022/12/24 09:04:16;;;;;;;20.25;3.33;;;;;;;11.59;100.00;99609.34;12238968;19;20722;-82
2022/12/24 09:08:19;;;;;;;18.15;3.53;;;;;;;11.55;100.00;99607.38;12196120;19;20002;-80
2022/12/24 09:12:20;;;;;;;14.40;3.00;;;;;;;11.51;100.00;99623.63;12217492;19;20014;-80
2022/12/24 09:16:22;;;;;;;23.85;4.22;;;;;;;11.52;100.00;99629.97;12216222;19;20118;-80
2022/12/24 09:20:24;;;;;;;21.73;3.72;;;;;;;11.51;100.00;99633.81;12193175;19;20003;-81
2022/12/24 09:24:26;;;;;;;27.42;5.03;;;;;;;11.56;100.00;99631.13;12209950;19;20034;-80
2022/12/24 09:28:27;;;;;;;19.17;4.30;;;;;;;11.66;100.00;99630.38;12213063;19;20409;-82
2022/12/24 09:32:29;;;;;;;22.70;3.45;;;;;;;11.72;100.00;99640.38;12191791;19;20029;-80
2022/12/24 09:36:32;;;;;;;16.65;3.90;;;;;;;11.78;100.00;99647.63;12212438;19;20002;-81
2022/12/24 09:40:38;;;;;;;14.38;3.08;;;;;;;11.83;100.00;99655.94;12213973;19;20452;-80
2022/12/24 09:44:48;;;;;;;25.52;4.20;;;;;;;11.88;100.00;99660.72;12192422;19;20611;-81
2022/12/24 09:48:57;;;;;;;16.38;3.67;;;;;;;12.01;100.00;99665.78;12209727;19;20010;-80
2022/12/24 09:53:03;;;;;;;18.50;3.70;;;;;;;12.09;100.00;99674.44;12187452;19;20031;-82
2022/12/24 09:57:14;;;;;;;19.95;3.67;;;;;;;12.16;100.00;99673.38;12207598;19;20011;-80
2022/12/24 10:01:17;;;;;;;26.20;4.97;;;;;;;12.17;100.00;99675.06;12206310;19;20085;-79
2022/12/24 10:05:35;;;;;;;18.55;4.85;;;;;;;12.35;100.00;99688.47;12184667;19;20003;-79
2022/12/24 10:09:49;;;;;;;16.23;3.50;;;;;;;12.52;100.00;99699.34;12204295;19;20035;-83
2022/12/24 10:13:58;;;;;;;21.30;4.18;;;;;;;12.62;100.00;99709.66;12184998;19;20645;-80
2022/12/24 10:18:55;;;;;;;24.88;4.10;;;;;;;12.72;100.00;99705.03;12209304;19;20037;-80
2022/12/24 10:23:25;;;;;;;28.77;4.00;;;;;;;12.88;100.00;99703.19;12194488;19;20018;-81
2022/12/24 10:27:36;;;;;;;20.63;4.30;;;;;;;12.85;100.00;99713.94;12207650;19;20521;-81
2022/12/24 10:31:48;;;;;;;13.77;3.70;;;;;;;12.83;100.00;99694.88;12208802;19;20003;-81
2022/12/24 10:35:53;;;;;;;;;;;;;;;12.82;100.00;99687.69;12183889;19;20014;-80
2022/12/24 10:39:57;;;;;;;18.27;3.78;;;;;;;12.83;100.00;99682.97;12205852;19;19915;-81
2022/12/24 10:43:58;;;;;;;13.38;3.47;;;;;;;12.83;100.00;99686.56;12191192;19;20007;-82
2022/12/24 10:48:06;;;;;;;18.40;4.15;;;;;;;12.84;100.00;99690.16;12220333;19;20390;-81
2022/12/24 10:52:14;;;;;;;16.10;3.42;;;;;;;12.91;100.00;99699.91;12219860;19;20014;-82
2022/12/24 10:56:18;;;;;;;24.80;4.03;;;;;;;13.02;100.00;99703.53;12201887;19;20035;-83
2022/12/24 11:00:23;;;;;;;27.80;4.70;;;;;;;13.13;100.00;99696.13;12222424;19;20009;-81
2022/12/24 11:04:48;;;;;;;22.00;3.97;;;;;;;13.29;100.00;99702.59;12221229;19;20046;-80
2022/12/24 11:08:50;;;;;;;15.65;3.85;;;;;;;13.29;100.00;99708.13;12206941;19;20030;-82
2022/12/24 11:12:51;;;;;;;26.83;3.50;;;;;;;13.22;100.00;99709.16;12229150;19;20031;-84
2022/12/24 11:17:22;;;;;;;15.52;4.00;;;;;;;13.13;100.00;99713.56;12195564;19;20027;-84
2022/12/24 11:21:42;;;;;;;20.70;4.13;;;;;;;13.16;100.00;99715.78;12214229;19;20062;-83
2022/12/24 11:25:49;;;;;;;20.67;3.50;;;;;;;13.18;100.00;99707.22;12221046;19;20016;-82
2022/12/24 11:29:51;;;;;;;20.42;3.33;;;;;;;13.08;100.00;99709.94;12209268;19;20082;-79
2022/12/24 11:33:53;;;;;;;18.48;3.90;;;;;;;12.99;100.00;99704.91;12255146;19;20007;-82
2022/12/24 11:38:00;;;;;;;21.33;4.32;;;;;;;12.91;100.00;99710.09;12222070;19;20010;-81
2022/12/24 11:42:02;;;;;;;29.70;5.65;;;;;;;12.89;100.00;99692.97;12224256;19;20011;-82
2022/12/24 11:46:15;;;;;;;21.90;4.63;;;;;;;12.92;100.00;99704.31;12215704;19;20007;-84
2022/12/24 11:50:31;;;;;;;18.67;4.22;;;;;;;12.85;100.00;99698.22;12194662;19;20311;-86
2022/12/24 11:54:41;;;;;;;17.27;3.88;;;;;;;12.93;100.00;99691.31;12213443;19;21383;-84
2022/12/24 11:58:55;;;;;;;22.38;4.50;;;;;;;13.08;100.00;99690.56;12211523;19;20194;-84
2022/12/24 12:03:01;;;;;;;27.65;5.43;;;;;;;12.97;100.00;99700.75;12184939;19;20502;-83
2022/12/24 12:07:13;;;;;;;17.65;3.97;;;;;;;12.89;100.00;99696.56;12216371;19;20555;-80
2022/12/24 12:11:16;;;;;;;;;;;;;;;12.77;100.00;99691.22;12194569;19;20099;-80
2022/12/24 12:15:22;;;;;;;20.23;3.63;;;;;;;12.66;100.00;99700.56;12210780;19;19927;-81
2022/12/24 12:19:25;;;;;;;18.80;4.38;;;;;;;12.70;100.00;99693.41;12213459;19;20010;-81
2022/12/24 12:23:30;;;;;;;19.48;4.38;;;;;;;12.76;100.00;99694.28;12194501;19;20020;-83
2022/12/24 12:27:38;;;;;;;11.82;3.28;;;;;;;12.87;100.00;99695.16;12214505;19;20014;-81
2022/12/24 12:31:51;;;;;;;19.85;4.38;;;;;;;12.88;100.00;99696.81;12214749;19;20027;-82
2022/12/24 12:35:55;;;;;;;17.90;3.88;;;;;;;12.87;100.00;99703.44;12192320;19;20003;-82
2022/12/24 12:39:56;;;;;;;17.05;4.10;;;;;;;12.77;100.00;99691.22;12214940;19;20003;-78
2022/12/24 12:44:22;;;;;;;20.60;3.78;;;;;;;12.63;100.00;99709.38;12200543;19;20017;-90
2022/12/24 12:48:43;;;;;;;20.35;4.22;;;;;;;12.63;100.00;99703.03;12213240;19;20009;-81
2022/12/24 12:53:14;;;;;;;16.58;3.65;;;;;;;12.76;100.00;99714.47;12214900;19;20010;-82
2022/12/24 12:57:19;;;;;;;20.92;4.43;;;;;;;12.79;100.00;99721.41;12183672;19;20510;-80
2022/12/24 13:01:48;;;;;;;22.23;4.15;;;;;;;12.75;100.00;99723.84;12200609;19;20007;-82
2022/12/24 13:06:09;;;;;;;22.73;4.28;;;;;;;12.83;100.00;99727.22;12187673;19;20070;-79
2022/12/24 13:10:39;;;;;;;19.63;4.70;;;;;;;12.85;100.00;99722.22;12212796;19;20003;-82
2022/12/24 13:15:10;;;;;;;15.48;4.20;;;;;;;12.71;100.00;99730.19;12192389;19;20514;-82
2022/12/24 13:19:51;;;;;;;20.13;4.28;;;;;;;12.47;100.00;99718.69;12216463;19;20010;-82
2022/12/24 13:24:05;;;;;;;15.23;4.00;;;;;;;12.38;100.00;99736.84;12187602;19;20011;-82
2022/12/24 13:28:22;;;;;;;18.75;4.68;;;;;;;12.40;100.00;99743.75;12210778;19;20003;-83
2022/12/24 13:32:23;;;;;;;16.17;4.68;;;;;;;12.56;100.00;99741.13;12185115;19;20010;-82
2022/12/24 13:37:04;;;;;;;20.45;4.32;;;;;;;12.62;100.00;99729.00;12207942;19;20063;-81
2022/12/24 13:41:31;;;;;;;22.33;4.68;;;;;;;12.45;100.00;99732.75;12189978;19;20058;-81
2022/12/24 13:45:40;;;;;;;16.73;4.32;;;;;;;12.26;100.00;99726.78;12207194;19;20030;-81
2022/12/24 13:49:45;;;;;;;22.15;4.65;;;;;;;12.15;100.00;99732.50;12211456;19;20027;-84
2022/12/24 13:53:48;;;;;;;17.95;4.35;;;;;;;12.13;100.00;99735.50;12187186;19;20476;-82
2022/12/24 13:58:02;;;;;;;25.60;5.05;;;;;;;12.17;100.00;99742.19;12207941;19;20002;-82
2022/12/24 14:02:11;;;;;;;15.63;4.40;;;;;;;12.24;100.00;99744.72;12187463;19;20030;-83
2022/12/24 14:06:22;;;;;;;17.55;4.65;;;;;;;12.39;100.00;99738.50;12207823;19;20439;-82
2022/12/24 14:10:29;;;;;;;;;;;;;;;12.43;100.00;99743.25;12203650;19;20366;-82
2022/12/24 14:14:31;;;;;;;21.80;4.40;;;;;;;12.48;100.00;99743.28;12183119;19;20325;-82
2022/12/24 14:18:38;;;;;;;17.33;3.85;;;;;;;12.52;100.00;99744.44;12206146;19;20010;-82
2022/12/24 14:22:44;;;;;;;19.92;4.45;;;;;;;12.49;100.00;99749.63;12202520;19;20492;-82
2022/12/24 14:26:50;;;;;;;14.73;3.92;;;;;;;12.39;100.00;99755.09;12178168;19;20010;-82
2022/12/24 14:31:00;;;;;;;16.00;4.38;;;;;;;12.31;100.00;99748.09;12201762;19;20354;-83
2022/12/24 14:35:26;;;;;;;21.35;3.45;;;;;;;12.19;100.00;99750.19;12183249;19;20007;-83
2022/12/24 14:39:37;;;;;;;19.25;3.67;;;;;;;12.13;100.00;99754.84;12214259;19;20059;-82
2022/12/24 14:43:51;;;;;;;14.13;3.47;;;;;;;12.07;100.00;99747.59;12217026;19;20110;-82
2022/12/24 14:48:06;;;;;;;14.70;3.28;;;;;;;12.01;100.00;99752.22;12187449;19;20011;-83
2022/12/24 14:52:23;;;;;;;13.48;3.90;;;;;;;11.93;100.00;99760.16;12214085;19;20102;-84
2022/12/24 14:56:46;;;;;;;13.57;3.10;;;;;;;11.88;100.00;99760.94;12210783;19;20641;-84
2022/12/24 15:00:48;;;;;;;13.52;3.70;;;;;;;11.78;100.00;99760.81;12237494;19;20111;-84
2022/12/24 15:05:10;;;;;;;17.38;3.28;;;;;;;11.71;100.00;99761.00;12226392;19;20013;-84
2022/12/24 15:09:23;;;;;;;16.15;3.28;;;;;;;11.69;100.00;99763.19;12274923;19;20010;-84
2022/12/24 15:13:48;;;;;;;16.50;3.78;;;;;;;11.64;100.00;99765.88;12266272;19;20027;-85
2022/12/24 15:17:51;;;;;;;12.50;3.47;;;;;;;11.56;100.00;99777.38;12196693;19;20500;-83
2022/12/24 15:21:54;;;;;;;15.85;4.68;;;;;;;11.53;100.00;99792.53;12209900;19;20015;-83
2022/12/24 15:26:25;;;;;;;21.52;3.70;;;;;;;11.45;100.00;99800.41;12184041;19;20066;-84
2022/12/24 15:30:28;;;;;;;15.23;4.10;;;;;;;11.40;100.00;99803.94;12203897;19;20010;-83
2022/12/24 15:34:47;;;;;;;16.92;4.20;;;;;;;11.31;100.00;99811.00;12220802;19;20062;-83
2022/12/24 15:38:52;;;;;;;15.60;4.70;;;;;;;11.22;100.00;99805.09;12193453;19;20027;-82
2022/12/24 15:42:54;;;;;;;16.13;4.05;;;;;;;11.19;100.00;99797.31;12214027;19;20342;-83
2022/12/24 15:46:58;;;;;;;13.27;2.88;;;;;;;11.13;100.00;99801.94;12193838;19;21361;-84
2022/12/24 15:51:03;;;;;;;13.32;4.20;;;;;;;11.11;100.00;99811.53;12218584;19;20003;-84
2022/12/24 15:55:24;;;;;;;17.35;4.47;;;;;;;11.08;100.00;99806.53;12219348;19;20002;-84
2022/12/24 15:59:36;;;;;;;16.52;3.90;;;;;;;11.10;100.00;99804.34;12194373;19;20006;-83
2022/12/24 16:03:52;;;;;;;13.98;4.15;;;;;;;11.09;100.00;99816.47;12211826;19;20046;-83
2022/12/24 16:08:08;;;;;;;17.70;4.88;;;;;;;11.11;100.00;99820.63;12187893;19;20025;-82
2022/12/24 16:12:14;;;;;;;16.40;4.88;;;;;;;11.09;100.00;99831.06;12205008;19;20006;-83
2022/12/24 16:16:30;;;;;;;19.98;5.30;;;;;;;11.08;100.00;99834.09;12198045;19;20007;-83
2022/12/24 16:20:32;;;;;;;16.00;4.45;;;;;;;11.07;100.00;99832.44;12188602;19;20007;-84
2022/12/24 16:24:34;;;;;;;17.52;4.60;;;;;;;11.05;100.00;99831.84;12210261;19;20458;-82
2022/12/24 16:28:36;;;;;;;17.80;4.97;;;;;;;11.04;100.00;99827.44;12217501;19;19998;-83
2022/12/24 16:32:40;;;;;;;18.48;5.00;;;;;;;11.02;100.00;99833.19;12241614;19;20023;-86
2022/12/24 16:36:43;;;;;;;18.05;4.97;;;;;;;11.02;100.00;99829.59;12246070;19;21046;-83
2022/12/24 16:40:45;;;;;;;15.82;4.57;;;;;;;11.03;100.00;99828.50;12214655;19;20003;-87
2022/12/24 16:44:50;;;;;;;17.40;4.30;;;;;;;11.00;100.00;99826.25;12190591;19;20112;-87
2022/12/24 16:48:52;;;;;;;20.50;5.35;;;;;;;10.94;100.00;99828.09;12212666;19;20003;-82
2022/12/24 16:52:53;;;;;;;19.45;5.85;;;;;;;10.91;100.00;99823.06;12192603;19;20355;-84
2022/12/24 16:56:55;;;;;;;13.73;4.75;;;;;;;10.87;100.00;99821.94;12239581;19;20116;-87
2022/12/24 17:00:58;;;;;;;17.25;5.43;;;;;;;10.82;100.00;99833.69;12252757;19;20002;-82
2022/12/24 17:05:00;;;;;;;16.90;4.88;;;;;;;10.78;100.00;99845.47;12225023;19;20007;-84
2022/12/24 17:09:01;;;;;;;17.10;5.35;;;;;;;10.77;100.00;99836.38;12206787;19;20029;-87
2022/12/24 17:13:03;;;;;;;21.60;5.68;;;;;;;10.78;100.00;99829.78;12199488;19;20020;-81
2022/12/24 17:17:05;;;;;;;16.85;4.40;;;;;;;10.81;100.00;99833.97;12182325;19;20034;-82
2022/12/24 17:21:07;;;;;;;22.70;5.78;;;;;;;10.81;100.00;99834.78;12207285;19;20006;-82
2022/12/24 17:25:11;;;;;;;17.48;4.55;;;;;;;10.79;100.00;99831.44;12205674;19;21326;-80
2022/12/24 17:29:13;;;;;;;15.43;5.30;;;;;;;10.78;100.00;99840.81;12178437;19;20731;-83
2022/12/24 17:33:15;;;;;;;28.10;6.30;;;;;;;10.82;100.00;99852.16;12200547;19;20630;-82
2022/12/24 17:37:16;;;;;;;23.65;6.25;;;;;;;10.85;100.00;99854.41;12231807;19;20038;-81
2022/12/24 17:41:19;;;;;;;19.88;6.35;;;;;;;10.88;100.00;99857.50;12182800;19;20011;-82
2022/12/24 17:45:20;;;;;;;18.73;6.40;;;;;;;10.93;100.00;99870.53;12198628;19;20745;-83
2022/12/24 17:49:22;;;;;;;20.10;6.25;;;;;;;10.99;100.00;99868.69;12197656;19;19999;-83
2022/12/24 17:53:24;;;;;;;21.85;7.68;;;;;;;11.04;100.00;99866.03;12175366;19;20082;-84
2022/12/24 17:57:26;;;;;;;17.02;6.00;;;;;;;11.08;100.00;99864.44;12196255;19;20002;-82
2022/12/24 18:01:30;;;;;;;20.40;6.18;;;;;;;11.11;100.00;99866.69;12196399;19;20027;-84
2022/12/24 18:05:34;;;;;;;28.08;9.68;;;;;;;11.13;100.00;99859.84;12177875;19;20006;-84
2022/12/24 18:09:35;;;;;;;31.02;13.40;;;;;;;11.16;100.00;99864.84;12197546;19;20002;-82
2022/12/24 18:13:38;;;;;;;22.77;8.15;;;;;;;11.16;100.00;99861.25;12201785;19;20018;-84
2022/12/24 18:17:40;;;;;;;22.25;7.32;;;;;;;11.17;100.00;99858.22;12217714;19;20041;-86
2022/12/24 18:21:41;;;;;;;23.52;8.02;;;;;;;11.15;100.00;99856.81;12219600;19;20010;-83
2022/12/24 18:25:43;;;;;;;31.30;10.13;;;;;;;11.17;100.00;99846.38;12205195;19;20020;-82
2022/12/24 18:29:45;;;;;;;26.95;9.02;;;;;;;11.22;100.00;99845.63;12184938;19;20030;-83
2022/12/24 18:33:48;;;;;;;25.40;10.52;;;;;;;11.24;100.00;99844.25;12209521;19;19999;-83
2022/12/24 18:37:50;;;;;;;26.60;7.15;;;;;;;11.25;100.00;99848.72;12210359;19;20479;-84
2022/12/24 18:41:51;;;;;;;21.20;7.97;;;;;;;11.23;100.00;99845.34;12187039;19;20011;-82
2022/12/24 18:45:53;;;;;;;15.38;6.38;;;;;;;11.16;100.00;99851.06;12205070;19;20003;-83
2022/12/24 18:49:55;;;;;;;19.55;5.30;;;;;;;11.09;100.00;99853.13;12189836;19;20464;-83